Benson, Nebraska
Current Conditions -  °F | °C
As of 6:52 PM on Tuesday 25 Nov 2014 (Local Time) from KOMA Reporting Station
Overcast Overcast  
Wind Chill: 30°   Ceiling: 10000
Heat Index: 38°   Visibility: 10mi
Dew Point: 24°   Wind: 14mph
Humidity: 57%   Direction: 160°SSE
Pressure: 29.95"   Gusts: NA
Location:  41.2947°N, 96.0008°W
Report Text: KOMA 260052Z 16012KT 10SM BKN100 OVC130 03/M04 A2995 RMK AO2 SLP152 T00331044
Loading
Personal Weather Stations






























Interactive Weather Map New forecast layout! Learn more

10-Day Weather Forecast

Advertisements
Track Severe Weather on mobile